createdAt,value
2018-06-03T00:00:06.798Z,51.98
2018-06-03T00:02:33.086Z,51.96
2018-06-03T00:04:59.232Z,51.97
2018-06-03T00:07:25.651Z,51.97
2018-06-03T00:09:51.812Z,51.97
2018-06-03T00:12:17.962Z,51.96
2018-06-03T00:14:44.133Z,51.95
2018-06-03T00:17:10.273Z,51.96
2018-06-03T00:19:36.450Z,51.96
2018-06-03T00:22:02.647Z,51.98
2018-06-03T00:24:29.076Z,51.97
2018-06-03T00:26:55.450Z,51.96
2018-06-03T00:29:21.587Z,51.96
2018-06-03T00:31:47.750Z,51.97
2018-06-03T00:34:13.884Z,51.96
2018-06-03T00:36:42.385Z,51.97
2018-06-03T00:39:09.051Z,51.96
2018-06-03T00:41:35.184Z,51.96
2018-06-03T00:44:01.370Z,51.96
2018-06-03T00:46:27.544Z,51.95
2018-06-03T00:48:54.139Z,51.95
2018-06-03T00:51:20.263Z,51.94
2018-06-03T00:53:46.399Z,51.95
2018-06-03T00:56:24.771Z,51.94
2018-06-03T00:58:50.931Z,51.94
2018-06-03T01:01:17.102Z,51.93
2018-06-03T01:03:43.550Z,51.93
2018-06-03T01:06:09.997Z,51.91
2018-06-03T01:08:36.133Z,51.90
2018-06-03T01:11:02.266Z,51.91
2018-06-03T01:13:28.453Z,51.91
2018-06-03T01:15:54.647Z,51.89
2018-06-03T01:18:20.870Z,51.89
2018-06-03T01:20:47.247Z,51.88
2018-06-03T01:23:13.523Z,51.88
2018-06-03T01:25:39.668Z,51.87
2018-06-03T01:28:05.798Z,51.87
2018-06-03T01:30:31.960Z,51.87
2018-06-03T01:32:58.113Z,51.87
2018-06-03T01:35:24.385Z,51.88
2018-06-03T01:37:50.516Z,51.87
2018-06-03T01:40:16.732Z,51.87
2018-06-03T01:42:42.907Z,51.86
2018-06-03T01:45:09.057Z,51.86
2018-06-03T01:47:35.240Z,51.85
2018-06-03T01:50:01.388Z,51.85
2018-06-03T01:52:27.683Z,51.86
2018-06-03T01:54:53.816Z,51.86
2018-06-03T01:57:20.046Z,51.85
2018-06-03T01:59:46.456Z,51.84
2018-06-03T02:02:12.608Z,51.84
2018-06-03T02:04:38.756Z,51.84
2018-06-03T02:07:04.881Z,51.84
2018-06-03T02:09:31.089Z,51.83
2018-06-03T02:11:57.221Z,51.85
2018-06-03T02:14:23.346Z,51.84
2018-06-03T02:16:49.521Z,51.84
2018-06-03T02:19:15.780Z,51.85
2018-06-03T02:21:41.916Z,51.86
2018-06-03T02:24:08.358Z,51.87
2018-06-03T02:26:34.552Z,51.86
2018-06-03T02:29:00.705Z,51.87
2018-06-03T02:31:26.828Z,51.89
2018-06-03T02:33:53.008Z,51.90
2018-06-03T02:36:19.163Z,51.89
2018-06-03T02:38:45.348Z,51.91
2018-06-03T02:41:11.498Z,51.92
2018-06-03T02:43:37.642Z,51.92
2018-06-03T02:46:03.827Z,51.91
2018-06-03T02:48:29.955Z,51.92
2018-06-03T02:50:56.122Z,51.94
2018-06-03T02:53:22.291Z,51.93
2018-06-03T02:55:48.573Z,51.94
2018-06-03T02:58:14.743Z,51.95
2018-06-03T03:00:40.886Z,51.95
2018-06-03T03:03:07.087Z,51.95
2018-06-03T03:05:33.233Z,51.95
2018-06-03T03:07:59.442Z,51.94
2018-06-03T03:10:25.594Z,51.95
2018-06-03T03:12:51.732Z,51.95
2018-06-03T03:15:17.889Z,51.94
2018-06-03T03:17:44.037Z,51.94
2018-06-03T03:20:10.315Z,51.94
2018-06-03T03:22:36.464Z,51.94
2018-06-03T03:25:02.612Z,51.94
2018-06-03T03:27:28.898Z,51.93
2018-06-03T03:29:55.028Z,51.92
2018-06-03T03:32:21.155Z,51.89
2018-06-03T03:34:47.336Z,51.87
2018-06-03T03:37:13.512Z,51.87
2018-06-03T03:39:39.679Z,51.86
2018-06-03T03:42:05.845Z,51.86
2018-06-03T03:44:31.971Z,51.84
2018-06-03T03:46:58.115Z,51.84
2018-06-03T03:49:24.301Z,51.84
2018-06-03T03:51:50.435Z,51.84
2018-06-03T03:54:16.611Z,51.83
2018-06-03T03:56:42.743Z,51.82
2018-06-03T03:59:09.252Z,51.78
2018-06-03T04:01:35.415Z,51.79
2018-06-03T04:04:01.549Z,51.78
2018-06-03T04:06:27.811Z,51.78
2018-06-03T04:08:53.948Z,51.75
2018-06-03T04:11:20.083Z,51.73
2018-06-03T04:13:46.373Z,51.71
2018-06-03T04:16:12.499Z,51.68
2018-06-03T04:18:38.739Z,51.66
2018-06-03T04:21:05.410Z,51.66
2018-06-03T04:23:31.728Z,51.60
2018-06-03T04:25:57.856Z,51.59
2018-06-03T04:28:24.027Z,51.56
2018-06-03T04:30:50.209Z,51.54
2018-06-03T04:33:16.348Z,51.54
2018-06-03T04:35:42.507Z,51.52
2018-06-03T04:38:08.667Z,51.52
2018-06-03T04:40:34.812Z,51.52
2018-06-03T04:43:00.948Z,51.51
2018-06-03T04:45:27.480Z,51.52
2018-06-03T04:47:53.605Z,51.53
2018-06-03T04:50:19.734Z,51.52
2018-06-03T04:52:45.895Z,51.51
2018-06-03T04:55:12.033Z,51.49
2018-06-03T04:57:38.207Z,51.49
2018-06-03T05:00:04.367Z,51.49
2018-06-03T05:02:30.684Z,51.48
2018-06-03T05:04:56.819Z,51.47
2018-06-03T05:07:22.943Z,51.43
2018-06-03T05:09:49.220Z,51.42
2018-06-03T05:12:15.374Z,51.41
2018-06-03T05:14:41.518Z,51.40
2018-06-03T05:17:07.763Z,51.35
2018-06-03T05:19:34.136Z,51.30
2018-06-03T05:22:00.404Z,51.27
2018-06-03T05:24:26.786Z,51.21
2018-06-03T05:26:52.924Z,51.15
2018-06-03T05:29:19.587Z,51.11
2018-06-03T05:31:45.731Z,51.10
2018-06-03T05:34:11.868Z,51.08
2018-06-03T05:36:38.040Z,51.04
2018-06-03T05:39:04.266Z,51.01
2018-06-03T05:41:30.447Z,50.97
2018-06-03T05:43:56.588Z,50.94
2018-06-03T05:46:22.763Z,50.88
2018-06-03T05:48:49.167Z,50.84
2018-06-03T05:51:15.499Z,50.77
2018-06-03T05:53:41.643Z,50.72
2018-06-03T05:56:07.789Z,50.70
2018-06-03T05:58:34.318Z,50.68
2018-06-03T06:01:00.442Z,50.63
2018-06-03T06:03:26.603Z,50.59
2018-06-03T06:05:52.773Z,50.53
2018-06-03T06:08:18.952Z,50.45
2018-06-03T06:10:45.162Z,50.39
2018-06-03T06:13:11.295Z,50.31
2018-06-03T06:15:37.437Z,50.17
2018-06-03T06:18:03.609Z,50.01
2018-06-03T06:20:29.769Z,49.86
2018-06-03T06:22:55.921Z,49.73
2018-06-03T06:25:22.144Z,49.62
2018-06-03T06:27:48.468Z,49.57
2018-06-03T06:30:14.608Z,49.46
2018-06-03T06:32:40.808Z,49.37
2018-06-03T06:35:06.972Z,49.20
2018-06-03T06:37:33.122Z,49.06
2018-06-03T06:39:59.467Z,48.96
2018-06-03T06:42:26.014Z,48.87
2018-06-03T06:44:52.521Z,48.83
2018-06-03T06:47:18.759Z,48.79
2018-06-03T06:49:45.212Z,48.76
2018-06-03T06:52:11.503Z,48.70
2018-06-03T06:54:37.933Z,48.68
2018-06-03T06:57:04.084Z,48.66
2018-06-03T06:59:30.704Z,48.68
2018-06-03T07:01:56.944Z,48.71
2018-06-03T07:04:23.337Z,48.72
2018-06-03T07:06:49.572Z,48.69
2018-06-03T07:09:15.965Z,48.68
2018-06-03T07:11:42.242Z,48.68
2018-06-03T07:14:08.671Z,48.69
2018-06-03T07:16:34.823Z,48.73
2018-06-03T07:19:02.800Z,48.75
2018-06-03T07:21:28.926Z,48.77
2018-06-03T07:23:55.057Z,48.79
2018-06-03T07:26:21.240Z,48.83
2018-06-03T07:28:47.359Z,48.83
2018-06-03T07:31:13.720Z,48.80
2018-06-03T07:33:39.860Z,48.78
2018-06-03T07:36:05.995Z,48.76
2018-06-03T07:38:32.200Z,48.73
2018-06-03T07:40:58.349Z,48.70
2018-06-03T07:43:24.491Z,48.65
2018-06-03T07:45:50.754Z,48.59
2018-06-03T07:48:16.912Z,48.52
2018-06-03T07:50:43.067Z,48.42
2018-06-03T07:53:09.266Z,48.33
2018-06-03T07:55:35.412Z,48.20
2018-06-03T07:58:01.581Z,48.08
2018-06-03T08:00:27.837Z,47.96
2018-06-03T08:02:53.992Z,47.88
2018-06-03T08:05:20.173Z,47.77
2018-06-03T08:07:46.379Z,47.68
2018-06-03T08:10:12.552Z,47.60
2018-06-03T08:12:39.025Z,47.56
2018-06-03T08:15:05.348Z,47.50
2018-06-03T08:17:31.490Z,47.44
2018-06-03T08:20:28.574Z,48.31
2018-06-03T08:22:56.428Z,47.70
2018-06-03T08:25:24.093Z,47.25
2018-06-03T08:27:51.933Z,48.11
2018-06-03T08:30:20.264Z,47.66
2018-06-03T08:32:48.434Z,47.27
2018-06-03T08:35:16.354Z,47.62
2018-06-03T08:37:44.562Z,46.90
2018-06-03T08:40:12.266Z,47.27
2018-06-03T08:42:39.965Z,47.01
2018-06-03T08:45:07.842Z,48.13
2018-06-03T08:47:36.194Z,46.90
2018-06-03T08:50:04.427Z,47.62
2018-06-03T08:52:32.336Z,48.08
2018-06-03T08:55:00.017Z,47.29
2018-06-03T08:57:27.776Z,47.56
2018-06-03T08:59:55.452Z,46.90
2018-06-03T09:02:23.266Z,47.58
2018-06-03T09:04:51.009Z,47.10
2018-06-03T09:07:19.958Z,47.06
2018-06-03T09:09:49.228Z,47.75
2018-06-03T09:12:17.420Z,47.78
2018-06-03T09:14:45.568Z,47.68
2018-06-03T09:17:13.762Z,47.01
2018-06-03T09:19:41.633Z,46.89
2018-06-03T09:22:09.963Z,47.57
2018-06-03T09:24:37.777Z,47.80
2018-06-03T09:27:05.828Z,46.63
2018-06-03T09:29:33.834Z,46.65
2018-06-03T09:32:01.532Z,47.66
2018-06-03T09:34:29.384Z,46.97
2018-06-03T09:36:57.568Z,46.61
2018-06-03T09:39:25.556Z,47.54
2018-06-03T09:41:53.218Z,47.25
2018-06-03T09:44:20.906Z,47.38
2018-06-03T09:46:48.621Z,46.73
2018-06-03T09:49:17.203Z,46.70
2018-06-03T09:51:45.151Z,46.98
2018-06-03T09:54:12.809Z,47.21
2018-06-03T09:56:40.783Z,47.66
2018-06-03T09:59:08.444Z,46.71
2018-06-03T10:01:36.360Z,46.82
2018-06-03T10:04:05.456Z,47.28
2018-06-03T10:06:33.528Z,47.24
2018-06-03T10:09:05.641Z,46.71
2018-06-03T10:11:33.310Z,46.87
2018-06-03T10:14:01.137Z,47.40
2018-06-03T10:16:29.554Z,46.81
2018-06-03T10:18:57.292Z,46.12
2018-06-03T10:21:25.092Z,46.01
2018-06-03T10:23:53.040Z,46.95
2018-06-03T10:26:21.443Z,46.83
2018-06-03T10:28:49.736Z,46.20
2018-06-03T10:31:25.431Z,46.60
2018-06-03T10:33:54.050Z,46.53
2018-06-03T10:36:22.559Z,45.69
2018-06-03T10:38:50.247Z,46.03
2018-06-03T10:41:17.911Z,46.09
2018-06-03T10:43:45.730Z,45.94
2018-06-03T10:46:13.664Z,45.36
2018-06-03T10:48:41.311Z,46.08
2018-06-03T10:51:09.280Z,45.36
2018-06-03T10:53:36.975Z,46.09
2018-06-03T10:56:05.366Z,45.43
2018-06-03T10:58:33.025Z,45.01
2018-06-03T11:01:00.719Z,46.06
2018-06-03T11:03:28.413Z,45.72
2018-06-03T11:05:56.145Z,44.98
2018-06-03T11:08:23.938Z,45.10
2018-06-03T11:10:51.740Z,45.51
2018-06-03T11:13:19.397Z,45.48
2018-06-03T11:15:47.074Z,46.12
2018-06-03T11:18:15.043Z,45.61
2018-06-03T11:20:43.013Z,45.92
2018-06-03T11:23:10.688Z,45.52
2018-06-03T11:25:38.363Z,45.87
2018-06-03T11:28:06.032Z,44.89
2018-06-03T11:30:34.073Z,45.75
2018-06-03T11:33:02.006Z,44.78
2018-06-03T11:35:29.683Z,44.69
2018-06-03T11:37:57.383Z,45.67
2018-06-03T11:40:25.057Z,45.56
2018-06-03T11:42:53.408Z,44.47
2018-06-03T11:45:21.047Z,45.10
2018-06-03T11:47:48.691Z,44.62
2018-06-03T11:50:16.752Z,45.16
2018-06-03T11:52:44.429Z,44.82
2018-06-03T11:55:12.253Z,44.93
2018-06-03T11:58:53.579Z,45.32
2018-06-03T12:01:21.404Z,45.44
2018-06-03T12:03:49.128Z,44.49
2018-06-03T12:06:16.795Z,45.39
2018-06-03T12:08:44.625Z,45.15
2018-06-03T12:11:12.549Z,45.25
2018-06-03T12:13:40.759Z,44.75
2018-06-03T12:16:08.428Z,45.55
2018-06-03T12:18:36.106Z,45.32
2018-06-03T12:21:03.800Z,44.94
2018-06-03T12:23:32.237Z,45.23
2018-06-03T12:25:59.920Z,44.92
2018-06-03T12:28:27.600Z,45.41
2018-06-03T12:30:55.643Z,44.69
2018-06-03T12:33:23.548Z,45.13
2018-06-03T12:35:51.532Z,45.30
2018-06-03T12:38:19.695Z,44.94
2018-06-03T12:40:47.368Z,45.53
2018-06-03T12:43:15.334Z,45.65
2018-06-03T12:45:43.279Z,45.08
2018-06-03T12:48:10.971Z,45.59
2018-06-03T12:50:38.615Z,45.79
2018-06-03T12:53:06.295Z,45.09
2018-06-03T12:55:34.108Z,45.45
2018-06-03T12:58:01.777Z,45.48
2018-06-03T13:00:29.706Z,45.82
2018-06-03T13:02:57.389Z,45.45
2018-06-03T13:05:25.122Z,45.77
2018-06-03T13:07:52.815Z,45.12
2018-06-03T13:10:20.504Z,45.41
2018-06-03T13:12:48.178Z,45.92
2018-06-03T13:15:15.972Z,45.89
2018-06-03T13:17:43.645Z,45.80
2018-06-03T13:20:11.304Z,45.29
2018-06-03T13:22:39.489Z,45.65
2018-06-03T13:25:07.750Z,45.39
2018-06-03T13:27:35.439Z,46.07
2018-06-03T13:30:03.145Z,45.32
2018-06-03T13:32:31.117Z,46.27
2018-06-03T13:34:58.820Z,45.78
2018-06-03T13:37:26.512Z,46.14
2018-06-03T13:39:54.608Z,46.35
2018-06-03T13:42:22.289Z,46.01
2018-06-03T13:44:49.930Z,45.95
2018-06-03T13:47:18.037Z,46.86
2018-06-03T13:49:45.680Z,46.76
2018-06-03T13:52:13.323Z,46.55
2018-06-03T13:54:41.340Z,46.81
2018-06-03T13:57:09.335Z,46.97
2018-06-03T13:59:37.396Z,46.40
2018-06-03T14:02:05.077Z,46.15
2018-06-03T14:04:32.812Z,46.26
2018-06-03T14:07:00.753Z,46.64
2018-06-03T14:09:28.460Z,45.63
2018-06-03T14:11:56.229Z,45.55
2018-06-03T14:14:23.877Z,45.55
2018-06-03T14:16:51.550Z,46.08
2018-06-03T14:19:19.264Z,45.41
2018-06-03T14:21:46.949Z,45.87
2018-06-03T14:24:14.603Z,45.32
2018-06-03T14:26:42.396Z,45.16
2018-06-03T14:29:10.059Z,45.50
2018-06-03T14:31:37.745Z,44.88
2018-06-03T14:34:05.714Z,44.80
2018-06-03T14:36:33.361Z,45.86
2018-06-03T14:39:01.043Z,45.63
2018-06-03T14:41:28.719Z,45.40
2018-06-03T14:43:56.447Z,45.21
2018-06-03T14:46:24.611Z,44.63
2018-06-03T14:48:52.292Z,44.50
2018-06-03T14:51:20.262Z,43.90
2018-06-03T14:53:47.928Z,44.82
2018-06-03T14:56:15.599Z,45.09
2018-06-03T14:58:43.286Z,44.43
2018-06-03T15:01:10.968Z,43.80
2018-06-03T15:03:38.915Z,43.03
2018-06-03T15:06:06.726Z,43.91
2018-06-03T15:08:34.447Z,43.76
2018-06-03T15:11:02.111Z,43.30
2018-06-03T15:13:29.826Z,43.70
2018-06-03T15:15:57.720Z,43.52
2018-06-03T15:18:25.810Z,43.63
2018-06-03T15:20:53.779Z,43.67
2018-06-03T15:23:21.517Z,44.27
2018-06-03T15:25:49.259Z,44.36
2018-06-03T15:28:17.240Z,44.70
2018-06-03T15:30:44.893Z,43.77
2018-06-03T15:33:12.597Z,43.43
2018-06-03T15:35:40.268Z,43.34
2018-06-03T15:38:08.247Z,43.39
2018-06-03T15:40:35.955Z,43.47
2018-06-03T15:43:03.965Z,43.41
2018-06-03T15:45:31.673Z,44.45
2018-06-03T15:47:59.381Z,43.93
2018-06-03T15:50:27.082Z,44.11
2018-06-03T15:52:54.947Z,44.04
2018-06-03T15:55:22.743Z,43.99
2018-06-03T15:57:50.452Z,43.64
2018-06-03T16:00:18.149Z,43.99
2018-06-03T16:02:45.867Z,44.23
2018-06-03T16:05:13.553Z,43.91
2018-06-03T16:07:41.259Z,43.89
2018-06-03T16:10:09.285Z,43.83
2018-06-03T16:12:37.600Z,42.95
2018-06-03T16:15:05.579Z,42.77
2018-06-03T16:17:33.308Z,42.27
2018-06-03T16:20:01.013Z,42.30
2018-06-03T16:22:28.681Z,41.42
2018-06-03T16:24:56.391Z,41.76
2018-06-03T16:27:24.056Z,41.52
2018-06-03T16:29:51.788Z,42.01
2018-06-03T16:32:19.756Z,41.16
2018-06-03T16:34:47.496Z,41.64
2018-06-03T16:37:15.173Z,42.11
2018-06-03T16:39:43.173Z,42.78
2018-06-03T16:42:10.858Z,42.75
2018-06-03T16:44:38.533Z,42.30
2018-06-03T16:47:06.223Z,42.41
2018-06-03T16:49:33.894Z,42.83
2018-06-03T16:52:01.714Z,41.74
2018-06-03T16:54:29.421Z,41.03
2018-06-03T16:56:57.107Z,40.09
2018-06-03T16:59:24.864Z,38.87
2018-06-03T17:01:52.527Z,37.83
2018-06-03T17:04:20.257Z,37.96
2018-06-03T17:06:48.275Z,38.06
2018-06-03T17:09:15.946Z,38.40
2018-06-03T17:11:43.937Z,39.26
2018-06-03T17:14:11.753Z,39.57
2018-06-03T17:16:39.726Z,38.93
2018-06-03T17:19:07.440Z,39.64
2018-06-03T17:21:35.587Z,40.02
2018-06-03T17:24:03.266Z,39.41
2018-06-03T17:26:30.943Z,40.28
2018-06-03T17:28:58.649Z,39.83
2018-06-03T17:31:26.341Z,40.32
2018-06-03T17:33:54.284Z,40.32
2018-06-03T17:36:22.150Z,39.98
2018-06-03T17:38:51.269Z,39.80
2018-06-03T17:41:19.475Z,40.75
2018-06-03T17:43:47.393Z,39.99
2018-06-03T17:46:15.183Z,40.11
2018-06-03T17:48:43.148Z,40.49
2018-06-03T17:51:10.827Z,40.45
2018-06-03T17:53:38.508Z,40.38
2018-06-03T17:56:06.258Z,40.09
2018-06-03T17:58:33.949Z,40.26
2018-06-03T18:01:01.652Z,41.69
2018-06-03T18:03:30.897Z,40.67
2018-06-03T18:05:58.950Z,41.24
2018-06-03T18:08:26.942Z,41.36
2018-06-03T18:10:54.764Z,40.72
2018-06-03T18:13:23.072Z,41.39
2018-06-03T18:15:51.287Z,40.58
2018-06-03T18:18:18.986Z,41.23
2018-06-03T18:20:46.878Z,40.95
2018-06-03T18:23:14.960Z,41.28
2018-06-03T18:25:42.855Z,41.32
2018-06-03T18:28:10.594Z,40.97
2018-06-03T18:30:38.597Z,41.74
2018-06-03T18:33:06.469Z,41.23
2018-06-03T18:35:34.352Z,41.87
2018-06-03T18:38:03.093Z,41.70
2018-06-03T18:40:30.836Z,42.66
2018-06-03T18:42:59.371Z,41.94
2018-06-03T18:45:29.294Z,41.65
2018-06-03T18:47:56.972Z,42.77
2018-06-03T18:50:24.676Z,42.25
2018-06-03T18:52:53.495Z,42.42
2018-06-03T18:55:21.852Z,42.48
2018-06-03T18:57:50.531Z,42.81
2018-06-03T19:00:18.449Z,43.22
2018-06-03T19:02:46.106Z,42.73
2018-06-03T19:05:20.465Z,42.86
2018-06-03T19:07:48.461Z,43.58
2018-06-03T19:10:16.862Z,43.87
2018-06-03T19:12:44.576Z,43.81
2018-06-03T19:15:12.237Z,43.22
2018-06-03T19:17:39.969Z,43.71
2018-06-03T19:20:07.679Z,44.38
2018-06-03T19:22:35.735Z,44.58
2018-06-03T19:25:04.356Z,44.12
2018-06-03T19:27:32.075Z,44.51
2018-06-03T19:29:59.749Z,44.72
2018-06-03T19:32:27.414Z,44.84
2018-06-03T19:34:55.085Z,44.29
2018-06-03T19:37:22.745Z,45.04
2018-06-03T19:39:50.530Z,45.38
2018-06-03T19:42:18.204Z,44.77
2018-06-03T19:44:46.139Z,45.67
2018-06-03T19:47:13.836Z,45.04
2018-06-03T19:49:41.859Z,45.84
2018-06-03T19:52:09.571Z,44.86
2018-06-03T19:54:37.255Z,46.01
2018-06-03T19:57:05.559Z,45.70
2018-06-03T19:59:33.241Z,45.07
2018-06-03T20:02:01.108Z,44.84
2018-06-03T20:04:29.996Z,45.70
2018-06-03T20:09:51.219Z,45.04
2018-06-03T20:12:18.930Z,44.81
2018-06-03T20:14:46.534Z,45.11
2018-06-03T20:17:14.994Z,45.44
2018-06-03T20:19:42.618Z,46.14
2018-06-03T20:22:10.547Z,45.92
2018-06-03T20:24:38.531Z,46.09
2018-06-03T20:27:06.246Z,46.54
2018-06-03T20:29:34.175Z,46.81
2018-06-03T20:32:02.123Z,46.26
2018-06-03T20:34:30.300Z,46.35
2018-06-03T20:36:57.986Z,47.25
2018-06-03T20:39:25.973Z,47.10
2018-06-03T20:41:54.012Z,47.26
2018-06-03T20:44:21.761Z,47.52
2018-06-03T20:46:50.012Z,47.24
2018-06-03T20:49:17.611Z,47.38
2018-06-03T20:51:45.225Z,47.36
2018-06-03T20:54:12.857Z,47.07
2018-06-03T20:56:40.828Z,48.23
2018-06-03T20:59:08.678Z,47.88
2018-06-03T21:01:37.296Z,48.55
2018-06-03T21:04:05.454Z,48.78
2018-06-03T21:06:33.076Z,48.55
2018-06-03T21:09:00.742Z,48.08
2018-06-03T21:11:28.998Z,48.10
2018-06-03T21:13:57.183Z,49.16
2018-06-03T21:16:25.152Z,48.77
2018-06-03T21:18:53.425Z,48.82
2018-06-03T21:21:21.394Z,48.84
2018-06-03T21:23:49.565Z,49.44
2018-06-03T21:26:17.385Z,49.70
2018-06-03T21:28:45.468Z,49.81
2018-06-03T21:31:13.090Z,49.74
2018-06-03T21:33:40.969Z,49.87
2018-06-03T21:36:09.031Z,49.24
2018-06-03T21:38:36.952Z,49.93
2018-06-03T21:41:04.574Z,49.69
2018-06-03T21:43:32.178Z,50.15
2018-06-03T21:46:00.083Z,49.46
2018-06-03T21:48:28.266Z,50.45
2018-06-03T21:50:56.557Z,50.29
2018-06-03T21:53:24.432Z,50.29
2018-06-03T21:55:52.345Z,49.86
2018-06-03T21:58:20.725Z,50.58
2018-06-03T22:00:48.354Z,50.63
2018-06-03T22:03:16.206Z,50.30
2018-06-03T22:05:44.669Z,50.33
2018-06-03T22:08:12.597Z,50.35
2018-06-03T22:10:40.543Z,50.99
2018-06-03T22:13:08.583Z,50.91
2018-06-03T22:15:36.222Z,50.93
2018-06-03T22:18:04.049Z,51.28
2018-06-03T22:20:31.685Z,50.98
2018-06-03T22:22:59.658Z,51.01
2018-06-03T22:25:27.703Z,50.82
2018-06-03T22:27:55.308Z,50.28
2018-06-03T22:30:23.307Z,50.91
2018-06-03T22:32:51.267Z,50.68
2018-06-03T22:35:18.901Z,50.90
2018-06-03T22:37:46.888Z,50.43
2018-06-03T22:40:14.820Z,51.19
2018-06-03T22:42:42.840Z,51.22
2018-06-03T22:45:10.478Z,51.02
2018-06-03T22:47:38.119Z,51.40
2018-06-03T22:50:06.094Z,51.50
2018-06-03T22:52:33.725Z,50.77
2018-06-03T22:55:01.649Z,51.32
2018-06-03T22:57:41.674Z,51.53
2018-06-03T23:00:09.460Z,51.70
2018-06-03T23:02:37.060Z,51.72
2018-06-03T23:05:05.383Z,51.00
2018-06-03T23:07:33.010Z,50.38
2018-06-03T23:10:00.901Z,50.79
2018-06-03T23:12:28.558Z,51.77
2018-06-03T23:14:56.150Z,51.03
2018-06-03T23:17:23.778Z,51.32
2018-06-03T23:19:51.441Z,51.27
2018-06-03T23:22:19.807Z,51.66
2018-06-03T23:24:47.730Z,51.58
2018-06-03T23:27:15.701Z,51.37
2018-06-03T23:29:43.765Z,51.86
2018-06-03T23:32:11.973Z,51.07
2018-06-03T23:34:40.244Z,50.63
2018-06-03T23:37:07.959Z,52.06
2018-06-03T23:39:35.955Z,51.36
2018-06-03T23:42:03.578Z,51.25
2018-06-03T23:44:31.479Z,51.77
2018-06-03T23:46:59.627Z,51.04
2018-06-03T23:49:27.289Z,51.85
2018-06-03T23:51:55.546Z,51.03
2018-06-03T23:54:23.764Z,51.25
2018-06-03T23:56:51.943Z,51.89
2018-06-03T23:59:19.907Z,51.14
